sensor_id;sensor_type;location;lat;lon;timestamp;pressure;altitude;pressure_sealevel;temperature;humidity
41312;BME280;27061;41.648;24.568;2023-01-31T00:01:39;85024.44;;;-1.82;74.41
41312;BME280;27061;41.648;24.568;2023-01-31T00:04:09;85017.81;;;-1.71;75.40
41312;BME280;27061;41.648;24.568;2023-01-31T00:06:41;85018.41;;;-1.76;75.49
41312;BME280;27061;41.648;24.568;2023-01-31T00:09:10;85009.66;;;-1.73;75.63
41312;BME280;27061;41.648;24.568;2023-01-31T00:11:38;84999.38;;;-1.78;75.56
41312;BME280;27061;41.648;24.568;2023-01-31T00:14:06;84970.56;;;-2.02;75.13
41312;BME280;27061;41.648;24.568;2023-01-31T00:16:33;84965.63;;;-2.13;76.19
41312;BME280;27061;41.648;24.568;2023-01-31T00:19:02;85014.41;;;-1.71;76.13
41312;BME280;27061;41.648;24.568;2023-01-31T00:21:30;85015.06;;;-1.73;76.70
41312;BME280;27061;41.648;24.568;2023-01-31T00:24:07;84968.34;;;-2.11;77.94
41312;BME280;27061;41.648;24.568;2023-01-31T00:27:00;84993.00;;;-1.97;77.32
41312;BME280;27061;41.648;24.568;2023-01-31T00:29:27;84932.56;;;-2.46;77.85
41312;BME280;27061;41.648;24.568;2023-01-31T00:31:54;85017.75;;;-1.75;78.50
41312;BME280;27061;41.648;24.568;2023-01-31T00:34:21;85015.00;;;-1.77;78.70
41312;BME280;27061;41.648;24.568;2023-01-31T00:36:48;84979.38;;;-1.99;79.56
41312;BME280;27061;41.648;24.568;2023-01-31T00:39:15;85031.53;;;-1.61;79.55
41312;BME280;27061;41.648;24.568;2023-01-31T00:41:43;84975.91;;;-2.06;80.81
41312;BME280;27061;41.648;24.568;2023-01-31T00:44:11;84976.81;;;-1.89;80.67
41312;BME280;27061;41.648;24.568;2023-01-31T00:46:38;84932.38;;;-2.16;81.63
41312;BME280;27061;41.648;24.568;2023-01-31T00:49:05;84948.03;;;-2.12;81.38
41312;BME280;27061;41.648;24.568;2023-01-31T00:51:32;84965.19;;;-1.98;81.27
41312;BME280;27061;41.648;24.568;2023-01-31T00:54:00;84941.06;;;-2.22;81.77
41312;BME280;27061;41.648;24.568;2023-01-31T00:56:27;84939.75;;;-2.21;82.51
41312;BME280;27061;41.648;24.568;2023-01-31T00:58:54;84921.84;;;-2.38;82.50
41312;BME280;27061;41.648;24.568;2023-01-31T01:01:24;85004.31;;;-1.65;82.84
41312;BME280;27061;41.648;24.568;2023-01-31T01:03:56;84993.41;;;-1.71;83.37
41312;BME280;27061;41.648;24.568;2023-01-31T01:06:24;84988.72;;;-1.64;82.99
41312;BME280;27061;41.648;24.568;2023-01-31T01:08:51;84948.16;;;-2.02;83.40
41312;BME280;27061;41.648;24.568;2023-01-31T01:11:25;84960.38;;;-2.01;84.12
41312;BME280;27061;41.648;24.568;2023-01-31T01:13:53;84993.31;;;-1.75;84.50
41312;BME280;27061;41.648;24.568;2023-01-31T01:16:26;84956.31;;;-2.02;85.43
41312;BME280;27061;41.648;24.568;2023-01-31T01:18:54;84974.53;;;-2.07;85.87
41312;BME280;27061;41.648;24.568;2023-01-31T01:21:24;84956.00;;;-2.21;85.79
41312;BME280;27061;41.648;24.568;2023-01-31T01:23:55;84978.63;;;-2.06;86.36
41312;BME280;27061;41.648;24.568;2023-01-31T01:26:25;84964.94;;;-2.14;85.99
41312;BME280;27061;41.648;24.568;2023-01-31T01:28:53;84914.63;;;-2.67;87.45
41312;BME280;27061;41.648;24.568;2023-01-31T01:31:22;85001.00;;;-2.05;87.27
41312;BME280;27061;41.648;24.568;2023-01-31T01:34:00;84994.13;;;-2.10;87.91
41312;BME280;27061;41.648;24.568;2023-01-31T01:36:27;84992.88;;;-2.05;88.63
41312;BME280;27061;41.648;24.568;2023-01-31T01:38:54;84985.31;;;-2.11;87.05
41312;BME280;27061;41.648;24.568;2023-01-31T01:41:22;84985.47;;;-2.03;87.79
41312;BME280;27061;41.648;24.568;2023-01-31T01:46:22;84991.63;;;-1.98;87.90
41312;BME280;27061;41.648;24.568;2023-01-31T01:48:51;84994.38;;;-1.96;89.08
41312;BME280;27061;41.648;24.568;2023-01-31T01:51:19;84988.31;;;-1.93;86.52
41312;BME280;27061;41.648;24.568;2023-01-31T01:53:48;84993.78;;;-1.89;86.04
41312;BME280;27061;41.648;24.568;2023-01-31T01:56:20;84996.47;;;-1.93;86.82
41312;BME280;27061;41.648;24.568;2023-01-31T02:01:20;84999.59;;;-2.08;86.99
41312;BME280;27061;41.648;24.568;2023-01-31T02:03:48;85003.63;;;-2.09;84.57
41312;BME280;27061;41.648;24.568;2023-01-31T02:06:17;85014.56;;;-2.05;83.85
41312;BME280;27061;41.648;24.568;2023-01-31T02:08:44;85013.53;;;-2.26;85.55
41312;BME280;27061;41.648;24.568;2023-01-31T02:13:39;85008.81;;;-2.26;85.08
41312;BME280;27061;41.648;24.568;2023-01-31T02:16:12;85014.31;;;-2.19;84.49
41312;BME280;27061;41.648;24.568;2023-01-31T02:18:40;85008.78;;;-2.28;86.05
41312;BME280;27061;41.648;24.568;2023-01-31T02:34:26;85019.78;;;-2.17;84.30
41312;BME280;27061;41.648;24.568;2023-01-31T02:42:34;85018.00;;;-2.03;82.76
41312;BME280;27061;41.648;24.568;2023-01-31T02:45:07;85014.59;;;-2.01;83.12
41312;BME280;27061;41.648;24.568;2023-01-31T02:50:25;85008.72;;;-1.88;79.33
41312;BME280;27061;41.648;24.568;2023-01-31T02:53:04;85014.75;;;-1.93;80.19
41312;BME280;27061;41.648;24.568;2023-01-31T02:58:20;85013.00;;;-1.74;80.72
41312;BME280;27061;41.648;24.568;2023-01-31T03:00:48;85004.31;;;-1.65;79.43
41312;BME280;27061;41.648;24.568;2023-01-31T03:03:27;85003.38;;;-1.83;79.76
41312;BME280;27061;41.648;24.568;2023-01-31T03:08:37;84993.41;;;-1.69;79.45
41312;BME280;27061;41.648;24.568;2023-01-31T03:11:06;84985.41;;;-1.59;77.01
41312;BME280;27061;41.648;24.568;2023-01-31T03:21:48;84963.28;;;-1.41;79.51
41312;BME280;27061;41.648;24.568;2023-01-31T03:24:18;84974.91;;;-1.32;78.98
41312;BME280;27061;41.648;24.568;2023-01-31T03:26:47;84970.91;;;-1.29;79.48
41312;BME280;27061;41.648;24.568;2023-01-31T03:29:15;84964.88;;;-1.22;79.59
41312;BME280;27061;41.648;24.568;2023-01-31T03:31:48;84958.16;;;-1.17;78.87
41312;BME280;27061;41.648;24.568;2023-01-31T03:34:18;84972.50;;;-1.10;78.29
41312;BME280;27061;41.648;24.568;2023-01-31T03:42:05;84963.00;;;-1.09;73.79
41312;BME280;27061;41.648;24.568;2023-01-31T03:44:48;84967.78;;;-1.07;73.35
41312;BME280;27061;41.648;24.568;2023-01-31T03:47:35;84958.25;;;-1.08;74.39
41312;BME280;27061;41.648;24.568;2023-01-31T03:50:06;84961.63;;;-1.10;74.63
41312;BME280;27061;41.648;24.568;2023-01-31T03:52:37;84960.19;;;-1.17;74.44
41312;BME280;27061;41.648;24.568;2023-01-31T03:55:09;84957.50;;;-1.13;74.46
41312;BME280;27061;41.648;24.568;2023-01-31T03:57:39;84961.53;;;-1.16;73.48
41312;BME280;27061;41.648;24.568;2023-01-31T04:00:10;84954.88;;;-1.07;74.32
41312;BME280;27061;41.648;24.568;2023-01-31T04:02:44;84946.59;;;-1.19;75.29
41312;BME280;27061;41.648;24.568;2023-01-31T04:05:18;84953.34;;;-1.20;75.25
41312;BME280;27061;41.648;24.568;2023-01-31T04:07:52;84942.44;;;-1.24;75.48
41312;BME280;27061;41.648;24.568;2023-01-31T04:10:22;84948.53;;;-1.26;74.56
41312;BME280;27061;41.648;24.568;2023-01-31T04:12:49;84947.31;;;-1.15;73.47
41312;BME280;27061;41.648;24.568;2023-01-31T04:15:15;84949.94;;;-1.21;73.80
41312;BME280;27061;41.648;24.568;2023-01-31T04:17:43;84954.06;;;-1.18;73.19
41312;BME280;27061;41.648;24.568;2023-01-31T04:20:10;84965.63;;;-1.15;72.85
41312;BME280;27061;41.648;24.568;2023-01-31T04:22:39;84956.16;;;-1.12;72.54
41312;BME280;27061;41.648;24.568;2023-01-31T04:25:06;84965.75;;;-1.07;71.47
41312;BME280;27061;41.648;24.568;2023-01-31T04:27:33;84973.13;;;-1.14;71.85
41312;BME280;27061;41.648;24.568;2023-01-31T04:30:00;84964.13;;;-1.26;72.56
41312;BME280;27061;41.648;24.568;2023-01-31T04:32:27;84975.13;;;-1.18;70.77
41312;BME280;27061;41.648;24.568;2023-01-31T04:34:54;84972.31;;;-1.24;70.80
41312;BME280;27061;41.648;24.568;2023-01-31T04:37:21;84983.22;;;-1.20;70.48
41312;BME280;27061;41.648;24.568;2023-01-31T04:39:48;84986.72;;;-1.12;71.43
41312;BME280;27061;41.648;24.568;2023-01-31T04:42:15;84984.63;;;-1.15;70.79
41312;BME280;27061;41.648;24.568;2023-01-31T04:44:42;84980.63;;;-1.10;72.41
41312;BME280;27061;41.648;24.568;2023-01-31T04:47:09;84982.19;;;-0.93;69.96
41312;BME280;27061;41.648;24.568;2023-01-31T04:49:36;84997.63;;;-1.09;70.87
41312;BME280;27061;41.648;24.568;2023-01-31T04:52:03;84994.41;;;-0.96;70.92
41312;BME280;27061;41.648;24.568;2023-01-31T04:54:30;84993.06;;;-0.93;68.95
41312;BME280;27061;41.648;24.568;2023-01-31T04:56:57;85006.75;;;-0.87;68.50
41312;BME280;27061;41.648;24.568;2023-01-31T04:59:24;85006.72;;;-0.89;68.57
41312;BME280;27061;41.648;24.568;2023-01-31T05:01:50;85007.44;;;-0.86;71.53
41312;BME280;27061;41.648;24.568;2023-01-31T05:04:17;85006.84;;;-0.79;69.64
41312;BME280;27061;41.648;24.568;2023-01-31T05:06:44;85012.22;;;-0.83;67.81
41312;BME280;27061;41.648;24.568;2023-01-31T05:09:11;85014.94;;;-0.83;67.15
41312;BME280;27061;41.648;24.568;2023-01-31T05:11:38;84995.94;;;-0.81;66.42
41312;BME280;27061;41.648;24.568;2023-01-31T05:14:05;85002.69;;;-0.86;67.23
41312;BME280;27061;41.648;24.568;2023-01-31T05:16:32;85012.22;;;-0.83;68.10
41312;BME280;27061;41.648;24.568;2023-01-31T05:19:00;85017.56;;;-0.91;67.98
41312;BME280;27061;41.648;24.568;2023-01-31T05:21:27;85023.06;;;-0.83;68.15
41312;BME280;27061;41.648;24.568;2023-01-31T05:23:53;85027.13;;;-0.86;66.13
41312;BME280;27061;41.648;24.568;2023-01-31T05:26:20;85022.28;;;-0.91;66.88
41312;BME280;27061;41.648;24.568;2023-01-31T05:28:47;85032.56;;;-0.86;67.45
41312;BME280;27061;41.648;24.568;2023-01-31T05:31:14;85040.78;;;-0.80;67.03
41312;BME280;27061;41.648;24.568;2023-01-31T05:33:41;85035.16;;;-0.96;65.63
41312;BME280;27061;41.648;24.568;2023-01-31T05:36:08;85033.78;;;-0.97;67.08
41312;BME280;27061;41.648;24.568;2023-01-31T05:38:35;85036.34;;;-1.09;68.15
41312;BME280;27061;41.648;24.568;2023-01-31T05:41:09;85034.34;;;-1.06;67.57
41312;BME280;27061;41.648;24.568;2023-01-31T05:43:36;85045.91;;;-1.06;67.21
41312;BME280;27061;41.648;24.568;2023-01-31T05:48:55;85040.47;;;-1.06;68.20
41312;BME280;27061;41.648;24.568;2023-01-31T05:51:22;85042.97;;;-1.20;69.15
41312;BME280;27061;41.648;24.568;2023-01-31T05:53:49;85030.00;;;-1.26;66.05
41312;BME280;27061;41.648;24.568;2023-01-31T05:56:16;85047.09;;;-1.17;66.28
41312;BME280;27061;41.648;24.568;2023-01-31T05:58:43;85049.69;;;-1.27;66.54
41312;BME280;27061;41.648;24.568;2023-01-31T06:01:13;85053.53;;;-1.42;66.75
41312;BME280;27061;41.648;24.568;2023-01-31T06:03:40;85052.22;;;-1.37;67.46
41312;BME280;27061;41.648;24.568;2023-01-31T06:06:07;85060.09;;;-1.56;68.13
41312;BME280;27061;41.648;24.568;2023-01-31T06:08:34;85058.91;;;-1.44;67.10
41312;BME280;27061;41.648;24.568;2023-01-31T06:11:01;85062.72;;;-1.62;67.70
41312;BME280;27061;41.648;24.568;2023-01-31T06:13:30;85073.50;;;-1.66;66.64
41312;BME280;27061;41.648;24.568;2023-01-31T06:15:57;85063.25;;;-1.71;68.73
41312;BME280;27061;41.648;24.568;2023-01-31T06:18:24;85074.13;;;-1.71;66.86
41312;BME280;27061;41.648;24.568;2023-01-31T06:20:52;85080.13;;;-1.77;67.07
41312;BME280;27061;41.648;24.568;2023-01-31T06:23:19;85079.91;;;-1.89;69.43
41312;BME280;27061;41.648;24.568;2023-01-31T06:25:49;85081.16;;;-1.96;69.88
41312;BME280;27061;41.648;24.568;2023-01-31T06:28:17;85083.28;;;-1.91;70.26
41312;BME280;27061;41.648;24.568;2023-01-31T06:30:44;85057.28;;;-2.06;70.53
41312;BME280;27061;41.648;24.568;2023-01-31T08:44:59;85152.72;;;-1.35;69.87
41312;BME280;27061;41.648;24.568;2023-01-31T08:47:25;85154.16;;;-1.30;70.32
41312;BME280;27061;41.648;24.568;2023-01-31T08:49:52;85158.16;;;-1.35;69.71
41312;BME280;27061;41.648;24.568;2023-01-31T08:52:19;85156.22;;;-1.29;70.16
41312;BME280;27061;41.648;24.568;2023-01-31T08:54:46;85154.22;;;-1.26;69.28
41312;BME280;27061;41.648;24.568;2023-01-31T08:57:13;85164.47;;;-1.23;69.84
41312;BME280;27061;41.648;24.568;2023-01-31T08:59:40;85166.50;;;-1.23;69.38
41312;BME280;27061;41.648;24.568;2023-01-31T09:02:09;85155.19;;;-1.09;67.67
41312;BME280;27061;41.648;24.568;2023-01-31T09:04:36;85164.38;;;-1.29;68.52
41312;BME280;27061;41.648;24.568;2023-01-31T09:07:03;85164.31;;;-1.33;68.78
41312;BME280;27061;41.648;24.568;2023-01-31T09:09:30;85173.22;;;-1.26;69.78
41312;BME280;27061;41.648;24.568;2023-01-31T09:11:59;85172.03;;;-1.17;67.75
41312;BME280;27061;41.648;24.568;2023-01-31T09:14:26;85172.00;;;-1.19;68.45
41312;BME280;27061;41.648;24.568;2023-01-31T09:16:54;85170.72;;;-1.14;67.55
41312;BME280;27061;41.648;24.568;2023-01-31T09:19:21;85165.72;;;-1.30;69.55
41312;BME280;27061;41.648;24.568;2023-01-31T09:21:49;85165.06;;;-1.28;69.11
41312;BME280;27061;41.648;24.568;2023-01-31T09:24:15;85155.59;;;-1.25;69.54
41312;BME280;27061;41.648;24.568;2023-01-31T09:26:42;85147.44;;;-1.25;70.18
41312;BME280;27061;41.648;24.568;2023-01-31T09:29:09;85162.16;;;-1.40;68.33
41312;BME280;27061;41.648;24.568;2023-01-31T09:31:36;85145.81;;;-1.42;69.34
41312;BME280;27061;41.648;24.568;2023-01-31T09:34:04;85143.69;;;-1.50;70.00
41312;BME280;27061;41.648;24.568;2023-01-31T09:36:31;85139.66;;;-1.45;70.51
41312;BME280;27061;41.648;24.568;2023-01-31T09:38:58;85134.88;;;-1.47;68.47
41312;BME280;27061;41.648;24.568;2023-01-31T09:44:00;85139.84;;;-1.35;67.57
41312;BME280;27061;41.648;24.568;2023-01-31T09:46:30;85137.78;;;-1.36;68.33
41312;BME280;27061;41.648;24.568;2023-01-31T09:48:58;85127.13;;;-1.22;66.76
41312;BME280;27061;41.648;24.568;2023-01-31T09:51:26;85134.41;;;-1.35;67.32
41312;BME280;27061;41.648;24.568;2023-01-31T09:53:54;85129.88;;;-1.20;69.39
41312;BME280;27061;41.648;24.568;2023-01-31T09:59:18;85113.47;;;-1.28;68.83
41312;BME280;27061;41.648;24.568;2023-01-31T10:01:48;85110.84;;;-1.22;69.09
41312;BME280;27061;41.648;24.568;2023-01-31T10:11:47;85099.75;;;-0.90;69.43
41312;BME280;27061;41.648;24.568;2023-01-31T10:16:57;85091.53;;;-0.96;67.93
41312;BME280;27061;41.648;24.568;2023-01-31T10:19:30;85096.97;;;-0.96;68.76
41312;BME280;27061;41.648;24.568;2023-01-31T10:22:07;85101.06;;;-0.93;66.84
41312;BME280;27061;41.648;24.568;2023-01-31T10:24:39;85100.38;;;-0.94;68.47
41312;BME280;27061;41.648;24.568;2023-01-31T10:27:13;85102.53;;;-0.84;66.73
41312;BME280;27061;41.648;24.568;2023-01-31T10:29:44;85102.41;;;-0.96;67.77
41312;BME280;27061;41.648;24.568;2023-01-31T10:32:29;85099.47;;;-1.11;67.65
41312;BME280;27061;41.648;24.568;2023-01-31T10:35:14;85094.78;;;-1.06;69.31
41312;BME280;27061;41.648;24.568;2023-01-31T10:37:47;85089.38;;;-1.04;70.46
41312;BME280;27061;41.648;24.568;2023-01-31T10:40:17;85091.97;;;-1.12;67.89
41312;BME280;27061;41.648;24.568;2023-01-31T10:42:50;85091.88;;;-1.20;68.94
41312;BME280;27061;41.648;24.568;2023-01-31T10:45:22;85097.25;;;-1.22;69.81
41312;BME280;27061;41.648;24.568;2023-01-31T10:47:50;85076.16;;;-1.28;70.59
41312;BME280;27061;41.648;24.568;2023-01-31T10:52:48;85089.13;;;-1.22;68.12
41312;BME280;27061;41.648;24.568;2023-01-31T10:57:45;85083.16;;;-1.11;69.78
41312;BME280;27061;41.648;24.568;2023-01-31T11:00:14;85071.69;;;-1.07;70.92
41312;BME280;27061;41.648;24.568;2023-01-31T11:02:45;85073.00;;;-1.10;70.45
41312;BME280;27061;41.648;24.568;2023-01-31T11:05:15;85075.78;;;-1.06;69.45
41312;BME280;27061;41.648;24.568;2023-01-31T11:07:44;85056.72;;;-1.08;70.18
41312;BME280;27061;41.648;24.568;2023-01-31T11:10:24;85084.72;;;-0.95;69.26
41312;BME280;27061;41.648;24.568;2023-01-31T11:12:52;85069.06;;;-0.99;69.38
41312;BME280;27061;41.648;24.568;2023-01-31T11:15:21;85077.09;;;-1.09;69.83
41312;BME280;27061;41.648;24.568;2023-01-31T11:17:49;85063.56;;;-1.03;70.22
41312;BME280;27061;41.648;24.568;2023-01-31T11:23:04;85070.53;;;-0.92;71.29
41312;BME280;27061;41.648;24.568;2023-01-31T11:25:34;85072.66;;;-0.84;71.17
41312;BME280;27061;41.648;24.568;2023-01-31T11:28:03;85070.69;;;-0.80;68.23
41312;BME280;27061;41.648;24.568;2023-01-31T11:30:31;85078.09;;;-0.84;70.06
41312;BME280;27061;41.648;24.568;2023-01-31T11:33:00;85076.78;;;-0.81;69.22
41312;BME280;27061;41.648;24.568;2023-01-31T11:35:29;85069.25;;;-0.85;71.07
41312;BME280;27061;41.648;24.568;2023-01-31T11:38:30;85071.34;;;-0.81;68.14
41312;BME280;27061;41.648;24.568;2023-01-31T11:40:50;85078.13;;;-0.82;68.98
41312;BME280;27061;41.648;24.568;2023-01-31T11:45:44;85076.06;;;-0.84;68.17
41312;BME280;27061;41.648;24.568;2023-01-31T11:50:40;85077.44;;;-0.83;70.09
41312;BME280;27061;41.648;24.568;2023-01-31T11:53:21;85080.28;;;-0.73;70.28
41312;BME280;27061;41.648;24.568;2023-01-31T11:55:50;85083.09;;;-0.66;69.17
41312;BME280;27061;41.648;24.568;2023-01-31T12:00:51;85077.75;;;-0.58;70.39
41312;BME280;27061;41.648;24.568;2023-01-31T12:03:19;85077.81;;;-0.54;70.52
41312;BME280;27061;41.648;24.568;2023-01-31T12:05:48;85070.38;;;-0.50;70.06
41312;BME280;27061;41.648;24.568;2023-01-31T12:10:56;85084.56;;;-0.57;68.19
41312;BME280;27061;41.648;24.568;2023-01-31T12:13:24;85082.44;;;-0.63;69.01
41312;BME280;27061;41.648;24.568;2023-01-31T12:16:03;85090.03;;;-0.55;70.40
41312;BME280;27061;41.648;24.568;2023-01-31T12:18:43;85084.63;;;-0.53;70.21
41312;BME280;27061;41.648;24.568;2023-01-31T12:23:55;85081.25;;;-0.50;70.29
41312;BME280;27061;41.648;24.568;2023-01-31T12:26:33;85091.34;;;-0.58;70.59
41312;BME280;27061;41.648;24.568;2023-01-31T12:40:31;85091.38;;;-0.56;72.52
41312;BME280;27061;41.648;24.568;2023-01-31T12:43:02;85096.22;;;-0.49;72.75
41312;BME280;27061;41.648;24.568;2023-01-31T12:50:48;85109.06;;;-0.55;71.55
41312;BME280;27061;41.648;24.568;2023-01-31T12:58:52;85102.16;;;-0.64;73.46
41312;BME280;27061;41.648;24.568;2023-01-31T13:04:34;85099.41;;;-0.66;73.62
41312;BME280;27061;41.648;24.568;2023-01-31T13:07:03;85098.81;;;-0.59;73.48
41312;BME280;27061;41.648;24.568;2023-01-31T13:09:32;85108.31;;;-0.60;72.50
41312;BME280;27061;41.648;24.568;2023-01-31T13:14:29;85103.50;;;-0.63;72.96
41312;BME280;27061;41.648;24.568;2023-01-31T13:16:58;85091.31;;;-0.60;72.42
41312;BME280;27061;41.648;24.568;2023-01-31T13:19:37;85099.44;;;-0.64;72.80
41312;BME280;27061;41.648;24.568;2023-01-31T13:22:07;85095.34;;;-0.65;73.19
41312;BME280;27061;41.648;24.568;2023-01-31T13:24:38;85106.38;;;-0.53;71.07
41312;BME280;27061;41.648;24.568;2023-01-31T13:27:17;85102.25;;;-0.56;70.68
41312;BME280;27061;41.648;24.568;2023-01-31T13:29:46;85107.59;;;-0.62;72.11
41312;BME280;27061;41.648;24.568;2023-01-31T13:32:17;85109.59;;;-0.67;73.10
41312;BME280;27061;41.648;24.568;2023-01-31T13:37:17;85114.38;;;-0.63;73.03
41312;BME280;27061;41.648;24.568;2023-01-31T13:39:57;85114.38;;;-0.63;74.90
41312;BME280;27061;41.648;24.568;2023-01-31T13:42:26;85125.25;;;-0.63;74.18
41312;BME280;27061;41.648;24.568;2023-01-31T13:44:53;85117.13;;;-0.61;74.46
41312;BME280;27061;41.648;24.568;2023-01-31T13:47:23;85114.50;;;-0.55;73.49
41312;BME280;27061;41.648;24.568;2023-01-31T13:49:59;85111.63;;;-0.67;75.14
41312;BME280;27061;41.648;24.568;2023-01-31T13:55:17;85115.72;;;-0.66;74.59
41312;BME280;27061;41.648;24.568;2023-01-31T13:57:42;85129.63;;;-0.90;75.52
41312;BME280;27061;41.648;24.568;2023-01-31T14:03:05;85130.53;;;-0.76;74.98
41312;BME280;27061;41.648;24.568;2023-01-31T14:10:57;85127.19;;;-0.70;74.08
41312;BME280;27061;41.648;24.568;2023-01-31T14:15:59;85126.56;;;-0.66;75.72
41312;BME280;27061;41.648;24.568;2023-01-31T14:18:36;85134.63;;;-0.73;76.61
41312;BME280;27061;41.648;24.568;2023-01-31T14:21:50;85139.50;;;-0.65;77.29
41312;BME280;27061;41.648;24.568;2023-01-31T14:23:50;85149.69;;;-0.65;76.55
41312;BME280;27061;41.648;24.568;2023-01-31T14:29:20;85146.88;;;-0.71;75.43
41312;BME280;27061;41.648;24.568;2023-01-31T14:31:47;85145.72;;;-0.58;74.41
41312;BME280;27061;41.648;24.568;2023-01-31T14:34:16;85156.50;;;-0.64;74.86
41312;BME280;27061;41.648;24.568;2023-01-31T14:52:25;85159.56;;;-0.38;73.38
41312;BME280;27061;41.648;24.568;2023-01-31T14:57:40;85175.88;;;-0.38;72.92
41312;BME280;27061;41.648;24.568;2023-01-31T15:15:57;85181.47;;;-0.28;72.30
41312;BME280;27061;41.648;24.568;2023-01-31T15:18:24;85179.50;;;-0.23;71.41
41312;BME280;27061;41.648;24.568;2023-01-31T15:20:55;85191.69;;;-0.26;71.57
41312;BME280;27061;41.648;24.568;2023-01-31T15:23:23;85188.13;;;-0.39;71.30
41312;BME280;27061;41.648;24.568;2023-01-31T15:25:51;85188.72;;;-0.45;71.93
41312;BME280;27061;41.648;24.568;2023-01-31T15:28:20;85186.66;;;-0.46;71.28
41312;BME280;27061;41.648;24.568;2023-01-31T15:30:48;85188.75;;;-0.41;71.12
41312;BME280;27061;41.648;24.568;2023-01-31T15:33:17;85192.16;;;-0.40;71.41
41312;BME280;27061;41.648;24.568;2023-01-31T15:38:33;85190.09;;;-0.44;69.84
41312;BME280;27061;41.648;24.568;2023-01-31T15:43:32;85197.66;;;-0.38;71.50
41312;BME280;27061;41.648;24.568;2023-01-31T15:46:50;85209.72;;;-0.49;70.75
41312;BME280;27061;41.648;24.568;2023-01-31T15:48:51;85204.19;;;-0.57;71.25
41312;BME280;27061;41.648;24.568;2023-01-31T15:51:18;85210.81;;;-0.68;70.04
41312;BME280;27061;41.648;24.568;2023-01-31T15:53:46;85225.81;;;-0.63;69.58
41312;BME280;27061;41.648;24.568;2023-01-31T15:56:20;85221.56;;;-0.77;71.01
41312;BME280;27061;41.648;24.568;2023-01-31T15:58:49;85221.44;;;-0.85;70.64
41312;BME280;27061;41.648;24.568;2023-01-31T16:01:16;85229.38;;;-0.99;71.75
41312;BME280;27061;41.648;24.568;2023-01-31T16:03:51;85232.81;;;-0.94;72.05
41312;BME280;27061;41.648;24.568;2023-01-31T16:06:23;85229.50;;;-0.91;72.87
41312;BME280;27061;41.648;24.568;2023-01-31T16:08:51;85240.38;;;-0.91;73.03
41312;BME280;27061;41.648;24.568;2023-01-31T16:11:29;85248.97;;;-1.04;72.97
41312;BME280;27061;41.648;24.568;2023-01-31T16:14:02;85251.16;;;-0.95;73.23
41312;BME280;27061;41.648;24.568;2023-01-31T16:16:33;85246.06;;;-1.15;72.12
41312;BME280;27061;41.648;24.568;2023-01-31T16:19:00;85245.25;;;-1.23;73.60
41312;BME280;27061;41.648;24.568;2023-01-31T16:26:37;85252.34;;;-1.06;74.07
41312;BME280;27061;41.648;24.568;2023-01-31T16:29:09;85251.47;;;-1.19;72.44
41312;BME280;27061;41.648;24.568;2023-01-31T16:31:46;85241.19;;;-1.22;73.02
41312;BME280;27061;41.648;24.568;2023-01-31T16:34:25;85245.00;;;-1.37;74.21
41312;BME280;27061;41.648;24.568;2023-01-31T16:41:50;85247.63;;;-1.43;76.67
41312;BME280;27061;41.648;24.568;2023-01-31T16:44:19;85252.97;;;-1.48;77.65
41312;BME280;27061;41.648;24.568;2023-01-31T16:46:47;85265.19;;;-1.47;77.18
41312;BME280;27061;41.648;24.568;2023-01-31T16:49:25;85262.38;;;-1.53;77.38
41312;BME280;27061;41.648;24.568;2023-01-31T16:52:35;85261.63;;;-1.57;77.18
41312;BME280;27061;41.648;24.568;2023-01-31T16:54:52;85260.78;;;-1.66;77.70
41312;BME280;27061;41.648;24.568;2023-01-31T16:59:47;85269.06;;;-1.58;77.18
41312;BME280;27061;41.648;24.568;2023-01-31T17:02:16;85257.31;;;-1.70;77.99
41312;BME280;27061;41.648;24.568;2023-01-31T17:04:45;85271.56;;;-1.70;79.31
41312;BME280;27061;41.648;24.568;2023-01-31T17:07:18;85271.50;;;-1.74;79.00
41312;BME280;27061;41.648;24.568;2023-01-31T17:09:45;85282.53;;;-1.64;78.49
41312;BME280;27061;41.648;24.568;2023-01-31T17:12:16;85266.09;;;-1.72;78.82
41312;BME280;27061;41.648;24.568;2023-01-31T17:14:47;85264.03;;;-1.73;78.85
41312;BME280;27061;41.648;24.568;2023-01-31T17:17:14;85271.78;;;-1.58;78.07
41312;BME280;27061;41.648;24.568;2023-01-31T17:19:47;85262.19;;;-1.63;78.55
41312;BME280;27061;41.648;24.568;2023-01-31T17:22:14;85277.94;;;-1.55;77.58
41312;BME280;27061;41.648;24.568;2023-01-31T17:24:41;85262.34;;;-1.55;77.82
41312;BME280;27061;41.648;24.568;2023-01-31T17:27:11;85271.81;;;-1.56;77.70
41312;BME280;27061;41.648;24.568;2023-01-31T17:29:38;85275.31;;;-1.51;77.60
41312;BME280;27061;41.648;24.568;2023-01-31T17:32:05;85287.63;;;-1.46;77.52
41312;BME280;27061;41.648;24.568;2023-01-31T17:34:32;85282.72;;;-1.54;75.84
41312;BME280;27061;41.648;24.568;2023-01-31T17:36:59;85257.84;;;-1.78;76.92
41312;BME280;27061;41.648;24.568;2023-01-31T17:39:26;85281.06;;;-1.71;78.46
41312;BME280;27061;41.648;24.568;2023-01-31T17:41:53;85272.78;;;-1.77;78.57
41312;BME280;27061;41.648;24.568;2023-01-31T17:44:20;85282.25;;;-1.78;79.06
41312;BME280;27061;41.648;24.568;2023-01-31T17:46:47;85284.91;;;-1.82;77.25
41312;BME280;27061;41.648;24.568;2023-01-31T17:49:14;85287.63;;;-1.82;78.44
41312;BME280;27061;41.648;24.568;2023-01-31T17:51:41;85283.69;;;-1.75;78.50
41312;BME280;27061;41.648;24.568;2023-01-31T17:54:08;85280.91;;;-1.77;79.61
41312;BME280;27061;41.648;24.568;2023-01-31T17:56:36;85281.25;;;-1.95;78.44
41312;BME280;27061;41.648;24.568;2023-01-31T17:59:03;85294.22;;;-1.91;78.90
41312;BME280;27061;41.648;24.568;2023-01-31T18:01:30;85287.22;;;-2.02;79.92
41312;BME280;27061;41.648;24.568;2023-01-31T18:03:57;85289.47;;;-1.91;79.82
41312;BME280;27061;41.648;24.568;2023-01-31T18:06:26;85288.09;;;-1.92;79.69
41312;BME280;27061;41.648;24.568;2023-01-31T18:08:53;85284.72;;;-1.90;79.61
41312;BME280;27061;41.648;24.568;2023-01-31T18:11:20;85282.22;;;-1.80;79.84
41312;BME280;27061;41.648;24.568;2023-01-31T18:13:46;85291.66;;;-1.83;79.67
41312;BME280;27061;41.648;24.568;2023-01-31T18:16:15;85289.72;;;-1.78;80.72
41312;BME280;27061;41.648;24.568;2023-01-31T18:18:42;85299.38;;;-1.69;80.92
41312;BME280;27061;41.648;24.568;2023-01-31T18:21:10;85302.81;;;-1.67;80.11